Terminal Aerodrome Forecast
Issued by NWS

Home | Current Version | Previous Version | Graphics & Text | Print | Product List | Glossary On
Versions: 1 2 3 4 5 6 7 8 9 10 11 12 13 14 15 16 17
000
FTUS45 KGGW 192028 AAA
TAFGDV
TAF AMD
KGDV 192028Z 1920/2018 20016KT P6SM FEW250
     FM200100 VRB06KT P6SM FEW210=

USA.gov is the U.S. government's official web portal to all federal, state and local government web resources and services.